Time;durP1;ratioP1;P1;durP2;ratioP2;P2;SDS_P1;SDS_P2;PMS_P1;PMS_P2;Temp;Humidity;BMP_temperature;BMP_pressure;BME280_temperature;BME280_humidity;BME280_pressure;Samples;Min_cycle;Max_cycle;Signal;HPM_P1;HPM_P2
2021/10/13 00:00:59;;;;;;;2.00;1.02;;;18.00;64.00;;;;;;5054067;28;20608;-74
2021/10/13 00:03:24;;;;;;;1.63;1.15;;;18.00;64.00;;;;;;5054205;28;20178;-73
2021/10/13 00:05:50;;;;;;;1.75;1.23;;;18.00;64.00;;;;;;5053190;28;20269;-73
2021/10/13 00:08:15;;;;;;;1.92;1.42;;;18.00;64.00;;;;;;5054023;28;20313;-71
2021/10/13 00:10:42;;;;;;;2.47;1.05;;;18.00;64.10;;;;;;5054024;28;20661;-72
2021/10/13 00:13:07;;;;;;;4.18;1.30;;;18.00;64.20;;;;;;5053205;28;20696;-72
2021/10/13 00:15:33;;;;;;;1.25;1.00;;;18.00;64.10;;;;;;5054021;28;20376;-76
2021/10/13 00:17:58;;;;;;;1.77;1.13;;;18.00;65.00;;;;;;5052053;28;20172;-72
2021/10/13 00:20:24;;;;;;;1.77;1.20;;;18.00;64.20;;;;;;5053830;28;20203;-72
2021/10/13 00:22:49;;;;;;;1.48;0.80;;;18.00;64.20;;;;;;5053517;28;20173;-75
2021/10/13 00:25:15;;;;;;;1.15;0.90;;;18.00;64.20;;;;;;5052965;28;20218;-75
2021/10/13 00:27:40;;;;;;;2.17;1.27;;;18.00;64.20;;;;;;5053921;28;20167;-78
2021/10/13 00:30:06;;;;;;;1.08;0.90;;;18.00;64.20;;;;;;5053443;28;20536;-76
2021/10/13 00:32:32;;;;;;;1.45;1.00;;;17.90;64.10;;;;;;5054179;28;20182;-78
2021/10/13 00:34:57;;;;;;;1.38;1.20;;;17.90;64.20;;;;;;5053417;28;20232;-73
2021/10/13 00:37:23;;;;;;;3.13;1.10;;;17.90;64.30;;;;;;5053613;28;20178;-72
2021/10/13 00:39:48;;;;;;;1.88;1.08;;;17.90;64.30;;;;;;5052332;28;20211;-72
2021/10/13 00:42:14;;;;;;;2.83;1.20;;;17.90;64.30;;;;;;5053642;28;20178;-71
2021/10/13 00:44:40;;;;;;;1.63;1.10;;;17.90;64.30;;;;;;5053513;28;20515;-72
2021/10/13 00:47:05;;;;;;;1.88;1.17;;;17.90;64.40;;;;;;5052471;28;20523;-72
2021/10/13 00:49:31;;;;;;;2.28;1.13;;;17.90;64.30;;;;;;5053483;28;20185;-75
2021/10/13 00:51:57;;;;;;;1.17;0.85;;;17.90;64.40;;;;;;5053227;28;20206;-73
2021/10/13 00:54:25;;;;;;;1.00;0.82;;;17.90;64.40;;;;;;5051207;28;20225;-73
2021/10/13 00:56:51;;;;;;;1.27;0.98;;;17.90;64.40;;;;;;5053114;28;20626;-78
2021/10/13 00:59:16;;;;;;;1.45;0.98;;;17.90;64.30;;;;;;5053335;28;20211;-74
2021/10/13 01:01:56;;;;;;;1.73;1.13;;;17.90;64.50;;;;;;5052555;28;20171;-76
2021/10/13 01:04:47;;;;;;;1.30;1.10;;;17.90;64.40;;;;;;5036598;28;20203;-72
2021/10/13 01:07:22;;;;;;;1.20;0.80;;;17.80;64.50;;;;;;5051360;28;20262;-71
2021/10/13 01:10:01;;;;;;;1.30;1.00;;;17.80;64.40;;;;;;5052703;28;20232;-73
2021/10/13 01:12:52;;;;;;;1.95;1.02;;;17.90;64.50;;;;;;5053173;28;20182;-72
2021/10/13 01:15:29;;;;;;;1.63;1.00;;;17.80;64.40;;;;;;5036795;28;20155;-73
2021/10/13 01:18:18;;;;;;;2.85;1.15;;;17.80;64.50;;;;;;5052791;28;20171;-73
2021/10/13 01:20:58;;;;;;;1.48;0.85;;;17.80;64.50;;;;;;5051630;28;20636;-72
2021/10/13 01:23:42;;;;;;;1.38;0.80;;;17.80;64.50;;;;;;5052164;28;20183;-76
2021/10/13 01:26:16;;;;;;;2.28;1.08;;;17.80;64.50;;;;;;5051234;28;20242;-78
2021/10/13 01:28:42;;;;;;;2.70;1.23;;;17.80;64.50;;;;;;5052094;28;20194;-76
2021/10/13 01:31:19;;;;;;;2.63;0.98;;;17.80;64.50;;;;;;5052804;28;20182;-78
2021/10/13 01:34:01;;;;;;;2.33;1.00;;;17.80;64.50;;;;;;5051491;28;20228;-73
2021/10/13 01:36:54;;;;;;;1.20;0.88;;;17.80;64.50;;;;;;5051287;28;20201;-72
2021/10/13 01:39:19;;;;;;;1.30;1.00;;;17.80;64.40;;;;;;5049681;28;20215;-74
2021/10/13 01:41:45;;;;;;;2.90;1.23;;;17.80;64.60;;;;;;5051770;28;20273;-72
2021/10/13 01:44:12;;;;;;;1.55;1.10;;;17.80;64.50;;;;;;5050403;28;20258;-72
2021/10/13 01:46:38;;;;;;;1.77;1.05;;;17.70;64.40;;;;;;5034945;28;20645;-72
2021/10/13 01:49:04;;;;;;;0.85;0.73;;;17.70;64.30;;;;;;5034737;28;20185;-72
2021/10/13 01:51:29;;;;;;;1.70;0.88;;;17.70;64.40;;;;;;5050767;28;20175;-76
2021/10/13 01:53:56;;;;;;;1.45;1.02;;;17.70;64.40;;;;;;5034621;28;20658;-73
2021/10/13 01:56:24;;;;;;;1.33;0.90;;;17.70;64.50;;;;;;5034217;28;20171;-77
2021/10/13 01:58:49;;;;;;;1.05;0.95;;;17.70;64.50;;;;;;5051302;28;20265;-77
2021/10/13 02:01:15;;;;;;;1.02;0.80;;;17.70;64.50;;;;;;5034695;28;20210;-73
2021/10/13 02:03:41;;;;;;;0.85;0.75;;;17.70;64.50;;;;;;5034301;28;20175;-77
2021/10/13 02:06:06;;;;;;;1.38;1.00;;;17.70;64.50;;;;;;5034692;28;20167;-72
2021/10/13 02:08:33;;;;;;;2.15;1.27;;;17.70;64.50;;;;;;5034863;28;20167;-74
2021/10/13 02:10:59;;;;;;;1.40;0.93;;;17.70;64.40;;;;;;5033888;28;20183;-73
2021/10/13 02:13:25;;;;;;;1.98;0.90;;;17.70;64.50;;;;;;5052342;28;20547;-73
2021/10/13 02:15:51;;;;;;;1.65;1.20;;;17.70;64.50;;;;;;5051057;28;20261;-75
2021/10/13 02:18:25;;;;;;;0.77;0.77;;;17.70;64.60;;;;;;5034049;28;20175;-73
2021/10/13 02:20:50;;;;;;;0.95;0.82;;;17.70;64.60;;;;;;5052086;28;20317;-73
2021/10/13 02:23:17;;;;;;;2.08;0.98;;;17.70;64.60;;;;;;5052349;28;20686;-76
2021/10/13 02:25:45;;;;;;;1.75;1.00;;;17.70;64.70;;;;;;5051449;28;20230;-77
2021/10/13 02:28:25;;;;;;;1.05;0.93;;;17.60;64.60;;;;;;5050778;28;20181;-78
2021/10/13 02:30:51;;;;;;;1.45;0.93;;;17.70;64.70;;;;;;5052081;28;20657;-75
2021/10/13 02:33:17;;;;;;;0.93;0.70;;;17.70;64.70;;;;;;5052167;28;20187;-72
2021/10/13 02:35:42;;;;;;;1.55;1.00;;;17.60;64.70;;;;;;5052194;28;20171;-75
2021/10/13 02:38:08;;;;;;;1.35;0.80;;;17.60;64.60;;;;;;5051972;28;20266;-71
2021/10/13 02:40:34;;;;;;;2.05;1.10;;;17.60;64.70;;;;;;5051244;28;20207;-75
2021/10/13 02:42:59;;;;;;;1.67;1.00;;;17.60;64.70;;;;;;5055611;28;20214;-71
2021/10/13 02:45:25;;;;;;;0.75;0.75;;;17.60;64.70;;;;;;5054643;28;20190;-74
2021/10/13 02:47:56;;;;;;;1.52;0.80;;;17.60;64.70;;;;;;5053549;28;20529;-72
2021/10/13 02:50:26;;;;;;;1.33;0.77;;;17.60;64.80;;;;;;5038160;28;20198;-72
2021/10/13 02:53:14;;;;;;;1.42;0.88;;;17.60;64.80;;;;;;5053342;28;20217;-77
2021/10/13 02:56:12;;;;;;;0.77;0.70;;;17.60;64.80;;;;;;5055773;28;20178;-76
2021/10/13 02:58:42;;;;;;;1.08;0.90;;;17.60;64.90;;;;;;5046987;28;20193;-74
2021/10/13 03:01:12;;;;;;;1.92;1.08;;;17.60;64.80;;;;;;5054549;28;20218;-77
2021/10/13 03:03:51;;;;;;;0.90;0.80;;;17.60;64.90;;;;;;5054154;28;20182;-74
2021/10/13 03:06:17;;;;;;;1.30;1.00;;;17.60;64.90;;;;;;5055509;28;20183;-71
2021/10/13 03:08:42;;;;;;;1.17;1.05;;;17.60;64.90;;;;;;5036893;28;20289;-72
2021/10/13 03:11:08;;;;;;;1.98;0.80;;;17.50;64.80;;;;;;5037063;28;20227;-72
2021/10/13 03:13:34;;;;;;;0.70;0.70;;;17.60;64.90;;;;;;5054187;28;20180;-75
2021/10/13 03:16:03;;;;;;;2.03;0.90;;;17.50;64.90;;;;;;5052825;28;20186;-73
2021/10/13 03:18:30;;;;;;;0.95;0.90;;;17.60;64.90;;;;;;5055558;28;20182;-72
2021/10/13 03:20:55;;;;;;;1.23;0.70;;;17.60;65.00;;;;;;5052865;28;20215;-76
2021/10/13 03:23:21;;;;;;;1.45;0.60;;;17.50;64.90;;;;;;5055192;28;20191;-72
2021/10/13 03:25:49;;;;;;;1.05;0.80;;;17.50;64.90;;;;;;5053561;28;20314;-78
2021/10/13 03:28:15;;;;;;;1.10;0.70;;;17.50;64.90;;;;;;5054402;28;20262;-77
2021/10/13 03:30:43;;;;;;;1.55;0.80;;;17.50;64.90;;;;;;5055195;28;20211;-75
2021/10/13 03:33:08;;;;;;;1.35;0.90;;;17.50;65.00;;;;;;5054866;28;20179;-75
2021/10/13 03:35:34;;;;;;;1.02;0.70;;;17.50;65.00;;;;;;5054879;28;20254;-72
2021/10/13 03:38:00;;;;;;;0.73;0.68;;;17.50;65.00;;;;;;5054616;28;20179;-74
2021/10/13 03:40:26;;;;;;;1.92;0.82;;;17.50;65.00;;;;;;5054431;28;20207;-72
2021/10/13 03:42:51;;;;;;;1.23;0.85;;;17.50;65.00;;;;;;5053640;28;20266;-71
2021/10/13 03:45:18;;;;;;;1.35;0.80;;;17.50;65.10;;;;;;5054543;28;20174;-72
2021/10/13 03:47:44;;;;;;;1.00;0.70;;;17.50;65.00;;;;;;5054745;28;20207;-72
2021/10/13 03:50:10;;;;;;;1.00;0.90;;;17.50;65.00;;;;;;5053427;28;20583;-74
2021/10/13 03:52:37;;;;;;;1.23;0.80;;;17.50;65.00;;;;;;5054097;28;20175;-74
2021/10/13 03:55:03;;;;;;;1.40;0.80;;;17.50;65.00;;;;;;5054206;28;20261;-76
2021/10/13 03:57:29;;;;;;;0.75;0.63;;;17.50;65.00;;;;;;5054413;28;20188;-79
2021/10/13 03:59:54;;;;;;;1.63;1.00;;;17.50;65.00;;;;;;5053870;28;20754;-76
2021/10/13 04:02:20;;;;;;;3.22;0.93;;;17.50;65.00;;;;;;5054284;28;20304;-77
2021/10/13 04:04:45;;;;;;;1.13;0.82;;;17.50;65.00;;;;;;5053706;28;20312;-75
2021/10/13 04:07:11;;;;;;;1.00;0.70;;;17.40;64.90;;;;;;5055138;28;20660;-73
2021/10/13 04:09:36;;;;;;;1.40;0.98;;;17.50;65.10;;;;;;5054195;28;20203;-74
2021/10/13 04:12:02;;;;;;;1.80;0.88;;;17.40;64.80;;;;;;5052988;28;20630;-73
2021/10/13 04:14:27;;;;;;;2.17;1.08;;;17.40;64.90;;;;;;5054348;28;20262;-78
2021/10/13 04:16:53;;;;;;;1.45;0.77;;;17.40;64.90;;;;;;5053599;28;20175;-75
2021/10/13 04:19:18;;;;;;;1.63;1.00;;;17.40;64.90;;;;;;5053363;28;20187;-74
2021/10/13 04:21:44;;;;;;;1.05;0.70;;;17.40;64.90;;;;;;5054367;28;20172;-77
2021/10/13 04:24:09;;;;;;;0.90;0.90;;;17.40;64.90;;;;;;5052688;28;20229;-76
2021/10/13 04:26:35;;;;;;;0.80;0.80;;;17.40;64.90;;;;;;5053784;28;20656;-78
2021/10/13 04:29:00;;;;;;;2.28;0.90;;;17.40;65.00;;;;;;5054243;28;20192;-78
2021/10/13 04:31:26;;;;;;;0.77;0.77;;;17.40;64.90;;;;;;5053129;28;20175;-77
2021/10/13 04:33:51;;;;;;;1.23;0.60;;;17.40;65.00;;;;;;5054447;28;20533;-77
2021/10/13 04:36:17;;;;;;;1.38;0.80;;;17.40;65.00;;;;;;5054564;28;20221;-73
2021/10/13 04:38:42;;;;;;;1.25;1.15;;;17.40;65.00;;;;;;5053102;28;20175;-77
2021/10/13 04:41:08;;;;;;;1.52;0.90;;;17.40;65.00;;;;;;5053289;28;20242;-73
2021/10/13 04:43:33;;;;;;;1.02;0.70;;;17.40;65.90;;;;;;5053602;28;20175;-72
2021/10/13 04:45:59;;;;;;;1.52;0.90;;;17.40;65.10;;;;;;5052518;28;20182;-74
2021/10/13 04:48:24;;;;;;;1.50;0.80;;;17.40;65.10;;;;;;5054017;28;20189;-72
2021/10/13 04:50:50;;;;;;;0.80;0.65;;;17.40;65.10;;;;;;5053102;28;20592;-78
2021/10/13 04:53:15;;;;;;;0.73;0.63;;;17.40;65.10;;;;;;5052708;28;20637;-76
2021/10/13 04:55:41;;;;;;;1.05;0.93;;;17.40;65.10;;;;;;5053887;28;20181;-78
2021/10/13 04:58:06;;;;;;;0.90;0.70;;;17.40;65.00;;;;;;5053471;28;20174;-78
2021/10/13 05:00:32;;;;;;;2.60;0.95;;;17.30;65.10;;;;;;5052367;28;20565;-76
2021/10/13 05:02:57;;;;;;;1.40;0.82;;;17.40;65.10;;;;;;5053032;28;20197;-76
2021/10/13 05:05:23;;;;;;;0.73;0.73;;;17.40;65.10;;;;;;5052684;28;20179;-75
2021/10/13 05:07:49;;;;;;;0.93;0.75;;;17.40;65.30;;;;;;5053576;28;20202;-74
2021/10/13 05:10:14;;;;;;;1.13;0.75;;;17.40;65.20;;;;;;5052954;28;20569;-74
2021/10/13 05:12:40;;;;;;;1.35;1.00;;;17.40;65.20;;;;;;5053022;28;20218;-74
2021/10/13 05:15:06;;;;;;;0.70;0.70;;;17.50;65.30;;;;;;5052258;28;20171;-75
2021/10/13 05:17:31;;;;;;;1.63;0.80;;;17.50;65.20;;;;;;5053114;28;20245;-76
2021/10/13 05:19:57;;;;;;;1.60;0.93;;;17.50;65.20;;;;;;5053580;28;20206;-73
2021/10/13 05:22:22;;;;;;;0.85;0.77;;;17.50;65.20;;;;;;5052509;28;20171;-78
2021/10/13 05:24:48;;;;;;;0.60;0.60;;;17.50;65.20;;;;;;5052675;28;20222;-77
2021/10/13 05:27:13;;;;;;;0.80;0.65;;;17.50;65.20;;;;;;5053242;28;20174;-78
2021/10/13 05:29:39;;;;;;;1.48;0.70;;;17.50;65.10;;;;;;5052360;28;20646;-79
2021/10/13 05:32:05;;;;;;;0.93;0.70;;;17.50;65.20;;;;;;5052865;28;20182;-75
2021/10/13 05:34:30;;;;;;;1.25;0.70;;;17.50;65.20;;;;;;5052197;28;20175;-76
2021/10/13 05:36:56;;;;;;;1.73;0.77;;;17.50;65.10;;;;;;5052810;28;20167;-73
2021/10/13 05:39:21;;;;;;;1.23;0.70;;;17.50;65.10;;;;;;5052554;28;20240;-74
2021/10/13 05:41:47;;;;;;;1.30;0.75;;;17.50;65.20;;;;;;5052003;28;20652;-74
2021/10/13 05:44:12;;;;;;;0.60;0.60;;;17.50;65.20;;;;;;5052693;28;20167;-72
2021/10/13 05:46:38;;;;;;;0.80;0.60;;;17.50;65.10;;;;;;5053078;28;20274;-74
2021/10/13 05:49:03;;;;;;;1.13;0.70;;;17.50;65.10;;;;;;5051688;28;20589;-73
2021/10/13 05:51:29;;;;;;;1.27;0.70;;;17.50;65.20;;;;;;5053300;28;20228;-76
2021/10/13 05:53:54;;;;;;;1.42;0.65;;;17.50;65.10;;;;;;5052689;28;20205;-76
2021/10/13 05:56:20;;;;;;;0.57;0.57;;;17.50;65.20;;;;;;5052121;28;20178;-74
2021/10/13 05:58:47;;;;;;;1.67;0.73;;;17.50;65.20;;;;;;5052394;28;20171;-76
2021/10/13 06:01:18;;;;;;;0.93;0.52;;;17.50;65.10;;;;;;5052676;28;20269;-73
2021/10/13 06:03:43;;;;;;;1.75;0.80;;;17.50;65.00;;;;;;5051936;28;20543;-75
2021/10/13 06:06:09;;;;;;;0.90;0.80;;;17.60;65.10;;;;;;5052463;28;20622;-75
2021/10/13 06:08:34;;;;;;;0.65;0.52;;;17.50;65.10;;;;;;5052362;28;20229;-72
2021/10/13 06:11:00;;;;;;;1.30;0.88;;;17.50;65.10;;;;;;5051397;28;20229;-77
2021/10/13 06:13:25;;;;;;;0.95;0.60;;;17.50;65.10;;;;;;5052401;28;20171;-75
2021/10/13 06:15:52;;;;;;;2.67;1.00;;;17.50;65.10;;;;;;5054509;28;20174;-74
2021/10/13 06:18:18;;;;;;;0.90;0.70;;;17.50;65.20;;;;;;5055815;28;20536;-75
2021/10/13 06:20:43;;;;;;;1.13;0.70;;;17.50;65.20;;;;;;5056643;28;20716;-74
2021/10/13 06:23:09;;;;;;;1.15;0.77;;;17.50;65.30;;;;;;5056100;28;20175;-76
2021/10/13 06:25:37;;;;;;;0.68;0.68;;;17.50;65.20;;;;;;5055269;28;20219;-78
2021/10/13 06:28:03;;;;;;;1.60;0.80;;;17.50;65.20;;;;;;5055868;28;20174;-77
2021/10/13 06:30:31;;;;;;;1.08;0.60;;;17.50;65.30;;;;;;5056164;28;20171;-78
2021/10/13 06:32:56;;;;;;;1.33;0.60;;;17.60;65.10;;;;;;5055033;28;20201;-75
2021/10/13 06:35:22;;;;;;;3.00;1.05;;;17.60;65.20;;;;;;5055918;28;20175;-76
2021/10/13 06:37:49;;;;;;;0.90;0.70;;;17.60;65.10;;;;;;5055020;28;20176;-73
2021/10/13 06:40:14;;;;;;;1.00;0.73;;;17.60;64.90;;;;;;5055787;28;20211;-72
2021/10/13 06:42:41;;;;;;;1.17;0.65;;;17.70;64.90;;;;;;5055919;28;20175;-74
2021/10/13 06:45:08;;;;;;;0.88;0.70;;;17.60;64.80;;;;;;5054804;28;20191;-72
2021/10/13 06:47:33;;;;;;;0.93;0.68;;;17.60;64.90;;;;;;5055767;28;20183;-75
2021/10/13 06:50:00;;;;;;;1.48;0.60;;;17.60;64.90;;;;;;5055324;28;20237;-66
2021/10/13 06:52:25;;;;;;;1.10;0.70;;;17.60;64.90;;;;;;5054861;28;20592;-67
2021/10/13 06:54:51;;;;;;;2.40;0.90;;;17.60;65.10;;;;;;5055323;28;20680;-75
2021/10/13 06:57:17;;;;;;;1.60;0.80;;;17.60;65.10;;;;;;5055666;28;20175;-76
2021/10/13 06:59:42;;;;;;;1.73;0.75;;;17.70;65.30;;;;;;5054770;28;20218;-66
2021/10/13 07:02:07;;;;;;;6.05;1.15;;;17.70;65.50;;;;;;5055234;28;20170;-68
2021/10/13 07:04:34;;;;;;;3.53;1.00;;;17.70;65.40;;;;;;5055399;28;20517;-68
2021/10/13 07:06:59;;;;;;;4.05;0.90;;;17.70;65.20;;;;;;5054330;28;20182;-67
2021/10/13 07:09:25;;;;;;;5.70;1.00;;;17.70;65.20;;;;;;5055233;28;20919;-66
2021/10/13 07:11:50;;;;;;;4.10;1.30;;;17.70;66.30;;;;;;5054866;28;20254;-66
2021/10/13 07:14:17;;;;;;;2.28;0.98;;;17.70;65.70;;;;;;5054607;28;20179;-67
2021/10/13 07:16:45;;;;;;;3.08;1.20;;;17.70;65.80;;;;;;5055192;28;20529;-68
2021/10/13 07:19:10;;;;;;;5.63;1.42;;;17.70;66.00;;;;;;5054667;28;20183;-67
2021/10/13 07:21:36;;;;;;;3.63;1.13;;;17.70;66.10;;;;;;5054341;28;20237;-67
2021/10/13 07:24:01;;;;;;;2.63;1.20;;;17.70;66.20;;;;;;5054545;28;20177;-66
2021/10/13 07:26:27;;;;;;;2.13;0.98;;;17.70;66.20;;;;;;5054319;28;20226;-67
2021/10/13 07:28:52;;;;;;;3.40;1.17;;;17.70;66.20;;;;;;5053739;28;20575;-67
2021/10/13 07:31:18;;;;;;;3.97;1.10;;;17.70;66.10;;;;;;5054933;28;20168;-67
2021/10/13 07:33:43;;;;;;;2.67;1.52;;;17.60;66.20;;;;;;5054828;28;20179;-67
2021/10/13 07:36:09;;;;;;;3.60;1.23;;;17.60;66.20;;;;;;5053762;28;20179;-67
2021/10/13 07:38:34;;;;;;;3.45;1.10;;;17.60;66.20;;;;;;5054627;28;20206;-67
2021/10/13 07:41:00;;;;;;;3.30;1.10;;;17.60;66.20;;;;;;5052608;28;20670;-65
2021/10/13 07:43:25;;;;;;;3.05;1.40;;;17.60;66.20;;;;;;5054651;28;20641;-66
2021/10/13 07:45:51;;;;;;;2.15;0.98;;;17.60;66.30;;;;;;5054244;28;20179;-66
2021/10/13 07:48:16;;;;;;;4.13;1.27;;;17.60;66.00;;;;;;5053877;28;20207;-65
2021/10/13 07:50:42;;;;;;;2.47;1.23;;;17.70;66.40;;;;;;5054409;28;20228;-66
2021/10/13 07:53:08;;;;;;;4.70;1.42;;;17.70;66.30;;;;;;5054016;28;20596;-65
2021/10/13 07:55:34;;;;;;;2.78;1.02;;;17.70;66.30;;;;;;5053982;28;20228;-65
2021/10/13 07:57:59;;;;;;;2.72;1.33;;;17.70;66.20;;;;;;5053677;28;20175;-67
2021/10/13 08:00:25;;;;;;;3.47;1.08;;;17.80;66.10;;;;;;5054356;28;20551;-65
2021/10/13 08:02:51;;;;;;;3.35;1.17;;;17.80;66.10;;;;;;5053079;28;20653;-65
2021/10/13 08:05:17;;;;;;;3.55;1.10;;;17.80;65.90;;;;;;5054190;28;20175;-64
2021/10/13 08:07:43;;;;;;;2.53;1.10;;;17.90;65.80;;;;;;5054043;28;20539;-64
2021/10/13 08:10:09;;;;;;;5.95;1.60;;;17.80;65.70;;;;;;5052804;28;20176;-64
2021/10/13 08:12:34;;;;;;;1.80;1.13;;;17.90;65.80;;;;;;5054103;28;20181;-64
2021/10/13 08:15:00;;;;;;;4.80;0.90;;;17.80;65.70;;;;;;5053660;28;20638;-70
2021/10/13 08:17:25;;;;;;;2.40;1.27;;;17.80;65.80;;;;;;5053340;28;20183;-72
2021/10/13 08:19:51;;;;;;;4.43;1.08;;;17.90;65.80;;;;;;5053554;28;20260;-72
2021/10/13 08:22:16;;;;;;;2.40;1.20;;;17.90;65.80;;;;;;5053722;28;20183;-71
2021/10/13 08:24:42;;;;;;;5.18;1.25;;;17.90;65.70;;;;;;5052932;28;20749;-69
2021/10/13 08:27:07;;;;;;;7.55;1.38;;;17.90;65.70;;;;;;5053583;28;20225;-70
2021/10/13 08:29:33;;;;;;;4.15;1.23;;;17.90;65.50;;;;;;5053894;28;20178;-70
2021/10/13 08:31:58;;;;;;;4.43;1.20;;;18.00;65.70;;;;;;5052641;28;20634;-69
2021/10/13 08:34:24;;;;;;;2.55;1.60;;;17.90;65.60;;;;;;5054151;28;20175;-70
2021/10/13 08:36:50;;;;;;;2.50;1.20;;;17.90;65.80;;;;;;5053027;28;20580;-75
2021/10/13 08:39:15;;;;;;;2.53;0.98;;;17.90;65.90;;;;;;5060606;28;20226;-77
2021/10/13 08:41:40;;;;;;;2.83;0.82;;;17.90;65.90;;;;;;5060096;28;20186;-74
2021/10/13 08:44:07;;;;;;;3.30;1.38;;;17.90;66.00;;;;;;5073051;28;20190;-77
2021/10/13 08:46:32;;;;;;;4.60;1.30;;;17.90;66.20;;;;;;5058845;28;20237;-77
2021/10/13 08:48:58;;;;;;;2.92;1.20;;;17.90;66.40;;;;;;5053059;28;20175;-75
2021/10/13 08:51:23;;;;;;;2.92;0.85;;;17.90;66.30;;;;;;5052640;28;20637;-74
2021/10/13 08:53:49;;;;;;;1.80;0.70;;;18.00;66.30;;;;;;5055037;28;20179;-65
2021/10/13 08:56:14;;;;;;;1.63;0.80;;;18.20;66.00;;;;;;5073235;28;20170;-65
2021/10/13 08:58:41;;;;;;;3.92;1.25;;;18.30;65.60;;;;;;5072356;28;20250;-66
2021/10/13 09:01:16;;;;;;;2.50;0.88;;;18.50;65.30;;;;;;5072698;28;20246;-65
2021/10/13 09:03:44;;;;;;;2.53;0.88;;;18.70;64.70;;;;;;5072988;28;20166;-66
2021/10/13 09:06:24;;;;;;;1.20;0.90;;;19.00;64.10;;;;;;5072208;28;20179;-66
2021/10/13 09:08:59;;;;;;;4.13;1.00;;;19.40;62.70;;;;;;5072923;28;20181;-66
2021/10/13 09:11:51;;;;;;;1.33;0.73;;;19.60;61.70;;;;;;5066709;28;20167;-69
2021/10/13 09:14:21;;;;;;;2.72;1.25;;;19.80;61.10;;;;;;5051122;28;20183;-71
2021/10/13 09:16:56;;;;;;;2.92;1.05;;;19.90;60.90;;;;;;5052824;28;20611;-72
2021/10/13 09:19:37;;;;;;;1.58;0.85;;;20.00;60.70;;;;;;5052418;28;20261;-74
2021/10/13 09:22:05;;;;;;;3.88;1.20;;;20.10;60.70;;;;;;5052646;28;20540;-73
2021/10/13 09:24:31;;;;;;;3.97;1.02;;;20.10;60.90;;;;;;5052662;28;20223;-72
2021/10/13 09:26:58;;;;;;;2.90;1.13;;;20.10;60.80;;;;;;5051606;28;20183;-72
2021/10/13 09:29:24;;;;;;;4.93;1.13;;;20.20;60.70;;;;;;5052847;28;20228;-71
2021/10/13 09:31:57;;;;;;;1.80;1.15;;;20.30;60.60;;;;;;5052606;28;20167;-72
2021/10/13 09:34:22;;;;;;;1.30;0.73;;;20.40;60.50;;;;;;5052122;28;20175;-72
2021/10/13 09:36:51;;;;;;;2.00;0.80;;;20.40;60.50;;;;;;5052360;28;20179;-70
2021/10/13 09:39:18;;;;;;;6.97;1.23;;;20.50;60.50;;;;;;5052416;28;20665;-69
2021/10/13 09:42:07;;;;;;;2.33;0.95;;;20.40;60.20;;;;;;5052147;28;20190;-69
2021/10/13 09:44:43;;;;;;;1.67;1.05;;;20.30;60.40;;;;;;5052569;28;20740;-70
2021/10/13 09:47:12;;;;;;;1.60;0.80;;;20.20;60.60;;;;;;5070512;28;20595;-67
2021/10/13 09:49:40;;;;;;;3.13;1.00;;;20.10;60.80;;;;;;5072164;28;20645;-69
2021/10/13 09:52:09;;;;;;;1.23;0.60;;;20.00;61.00;;;;;;5076202;28;20189;-70
2021/10/13 09:54:35;;;;;;;1.73;0.77;;;20.00;61.20;;;;;;5075457;28;20622;-69
2021/10/13 09:57:23;;;;;;;1.45;0.63;;;19.90;61.40;;;;;;5076259;28;20189;-70
2021/10/13 10:00:11;;;;;;;1.83;0.88;;;19.90;61.60;;;;;;5076402;28;20221;-69
2021/10/13 10:02:49;;;;;;;4.78;0.90;;;19.80;61.70;;;;;;5075982;28;20224;-70
2021/10/13 10:05:43;;;;;;;4.55;0.80;;;19.70;62.00;;;;;;5075514;28;20182;-70
2021/10/13 10:08:10;;;;;;;3.78;0.85;;;19.60;62.30;;;;;;5075114;28;20198;-69
2021/10/13 10:10:37;;;;;;;2.17;0.90;;;19.60;62.60;;;;;;5075722;28;20207;-70
2021/10/13 10:13:09;;;;;;;3.20;0.90;;;19.60;62.70;;;;;;5076156;28;20182;-69
2021/10/13 10:15:39;;;;;;;6.82;1.02;;;19.40;63.00;;;;;;5076336;28;20202;-68
2021/10/13 10:18:33;;;;;;;1.85;0.85;;;19.50;63.50;;;;;;5076079;28;20178;-70
2021/10/13 10:21:24;;;;;;;1.45;0.73;;;19.40;63.20;;;;;;5075858;28;20206;-70
2021/10/13 10:23:57;;;;;;;2.08;0.70;;;19.50;63.20;;;;;;5075302;28;20178;-68
2021/10/13 10:26:25;;;;;;;2.20;1.02;;;19.60;63.20;;;;;;5075829;28;20228;-68
2021/10/13 10:28:54;;;;;;;2.17;0.90;;;19.50;63.00;;;;;;5075903;28;20178;-68
2021/10/13 10:31:28;;;;;;;3.63;1.00;;;19.50;63.00;;;;;;5075314;28;20189;-68
2021/10/13 10:34:03;;;;;;;0.88;0.60;;;19.40;63.20;;;;;;5075802;28;20169;-69
2021/10/13 10:36:48;;;;;;;1.20;0.90;;;19.40;63.30;;;;;;5076046;28;20178;-67
2021/10/13 10:39:18;;;;;;;2.45;0.98;;;19.40;63.30;;;;;;5071687;28;20183;-68
2021/10/13 10:41:52;;;;;;;1.42;0.60;;;19.40;63.40;;;;;;5075775;28;20205;-70
2021/10/13 10:44:36;;;;;;;1.05;0.57;;;19.30;63.50;;;;;;5075276;28;20253;-74
2021/10/13 10:47:06;;;;;;;2.08;1.05;;;19.30;63.70;;;;;;5056732;28;20183;-75
2021/10/13 10:49:50;;;;;;;2.05;1.02;;;19.20;63.80;;;;;;5055807;28;20241;-74
2021/10/13 10:52:19;;;;;;;2.10;0.90;;;19.30;63.90;;;;;;5054891;28;20553;-72
2021/10/13 10:55:04;;;;;;;2.40;0.90;;;19.20;64.00;;;;;;5055768;28;20171;-72
2021/10/13 10:57:33;;;;;;;1.48;0.80;;;19.20;64.00;;;;;;5055547;28;20171;-72
2021/10/13 11:00:03;;;;;;;2.30;0.95;;;19.20;64.20;;;;;;5054521;28;20246;-66
2021/10/13 11:02:30;;;;;;;1.75;0.88;;;19.10;64.10;;;;;;5054525;28;20225;-74
2021/10/13 11:05:09;;;;;;;1.67;0.80;;;19.10;64.30;;;;;;5054193;28;20649;-76
2021/10/13 11:07:38;;;;;;;1.80;0.60;;;19.10;64.50;;;;;;5055246;28;20630;-73
2021/10/13 11:10:06;;;;;;;2.72;0.85;;;19.10;64.50;;;;;;5055020;28;20175;-73
2021/10/13 11:12:53;;;;;;;2.40;1.10;;;19.10;64.50;;;;;;5054492;28;20187;-71
2021/10/13 11:15:21;;;;;;;2.75;0.82;;;19.10;64.40;;;;;;5055183;28;20179;-65
2021/10/13 11:17:47;;;;;;;2.40;0.85;;;19.10;64.40;;;;;;5055150;28;20621;-69
2021/10/13 11:20:15;;;;;;;2.90;0.63;;;19.10;64.40;;;;;;5054296;28;20294;-68
2021/10/13 11:22:40;;;;;;;2.65;1.15;;;19.20;64.20;;;;;;5055196;28;20171;-68
2021/10/13 11:25:17;;;;;;;3.33;0.88;;;19.30;64.00;;;;;;5054576;28;20284;-67
2021/10/13 11:27:42;;;;;;;3.42;0.93;;;19.30;63.70;;;;;;5054108;28;20179;-69
2021/10/13 11:30:20;;;;;;;2.78;0.73;;;19.30;63.60;;;;;;5054761;28;20254;-69
2021/10/13 11:32:46;;;;;;;2.15;0.77;;;19.50;63.40;;;;;;5054936;28;20262;-69
2021/10/13 11:35:13;;;;;;;1.15;0.75;;;19.50;63.30;;;;;;5053711;28;20255;-72
2021/10/13 11:37:39;;;;;;;2.30;0.73;;;19.50;63.40;;;;;;5054841;28;20180;-72
2021/10/13 11:40:05;;;;;;;2.17;0.77;;;19.50;63.50;;;;;;5053641;28;20214;-72
2021/10/13 11:42:33;;;;;;;2.30;1.08;;;19.40;63.60;;;;;;5054845;28;20167;-73
2021/10/13 11:45:00;;;;;;;0.98;0.60;;;19.50;63.70;;;;;;5056034;28;20249;-72
2021/10/13 11:47:33;;;;;;;2.95;0.60;;;19.40;63.70;;;;;;5074265;28;20193;-66
2021/10/13 11:50:10;;;;;;;1.67;0.60;;;19.50;63.70;;;;;;5074325;28;20524;-65
2021/10/13 11:52:36;;;;;;;1.00;0.80;;;19.40;63.80;;;;;;5074482;28;20212;-64
2021/10/13 11:55:03;;;;;;;1.42;0.60;;;19.30;63.90;;;;;;5073622;28;20191;-65
2021/10/13 11:57:28;;;;;;;2.38;0.68;;;19.20;63.90;;;;;;5074555;28;20175;-65
2021/10/13 12:00:15;;;;;;;1.67;0.70;;;19.10;64.00;;;;;;5073919;28;20574;-66
2021/10/13 12:02:41;;;;;;;3.70;1.02;;;19.10;64.10;;;;;;5073488;28;20667;-66
2021/10/13 12:05:08;;;;;;;1.38;0.77;;;19.00;64.10;;;;;;5073809;28;20182;-65
2021/10/13 12:07:41;;;;;;;1.08;0.75;;;19.00;64.30;;;;;;5074190;28;20178;-65
2021/10/13 12:10:07;;;;;;;1.00;0.73;;;19.00;64.40;;;;;;5073187;28;20255;-64
2021/10/13 12:12:32;;;;;;;2.63;1.00;;;19.10;64.40;;;;;;5074160;28;20240;-64
2021/10/13 12:14:58;;;;;;;2.85;1.08;;;19.10;64.30;;;;;;5073579;28;20637;-65
2021/10/13 12:17:29;;;;;;;2.42;0.95;;;19.20;64.20;;;;;;5072036;28;20211;-65
2021/10/13 12:19:55;;;;;;;3.97;1.20;;;19.10;64.10;;;;;;5073820;28;20241;-65
2021/10/13 12:22:20;;;;;;;3.88;0.93;;;19.30;64.10;;;;;;5073327;28;20193;-65
2021/10/13 12:24:46;;;;;;;1.60;0.80;;;19.30;64.00;;;;;;5073815;28;20684;-66
2021/10/13 12:27:11;;;;;;;2.88;0.98;;;19.40;64.00;;;;;;5073531;28;20182;-64
2021/10/13 12:29:43;;;;;;;1.98;0.73;;;19.40;63.90;;;;;;5072952;28;20174;-63
2021/10/13 12:32:21;;;;;;;2.55;0.90;;;19.50;63.90;;;;;;5073524;28;20202;-64
2021/10/13 12:34:47;;;;;;;2.67;0.70;;;19.50;63.90;;;;;;5073963;28;20189;-64
2021/10/13 12:37:13;;;;;;;2.20;0.82;;;19.40;63.70;;;;;;5072897;28;20550;-65
2021/10/13 12:39:38;;;;;;;1.35;0.93;;;19.40;63.80;;;;;;5073438;28;20675;-65
2021/10/13 12:42:11;;;;;;;2.15;1.00;;;19.40;64.00;;;;;;5073014;28;20202;-64
2021/10/13 12:44:38;;;;;;;3.33;1.08;;;19.30;64.10;;;;;;5072769;28;20179;-64
2021/10/13 12:47:11;;;;;;;1.15;0.82;;;19.30;64.20;;;;;;5054446;28;20175;-64
2021/10/13 12:49:44;;;;;;;2.00;0.50;;;19.20;64.20;;;;;;5053302;28;20603;-64
2021/10/13 12:52:10;;;;;;;1.45;0.82;;;19.20;64.20;;;;;;5052445;28;20172;-64
2021/10/13 12:54:43;;;;;;;1.88;0.73;;;19.20;64.20;;;;;;5053513;28;20178;-64